createdAt,value
2018-09-10T00:01:04.090Z,18.80
2018-09-10T00:03:32.037Z,18.60
2018-09-10T00:06:00.017Z,18.60
2018-09-10T00:08:27.964Z,18.70
2018-09-10T00:10:55.908Z,18.70
2018-09-10T00:13:23.840Z,18.70
2018-09-10T00:15:51.778Z,18.70
2018-09-10T00:18:19.729Z,18.70
2018-09-10T00:20:47.726Z,18.60
2018-09-10T00:23:15.947Z,18.60
2018-09-10T00:25:43.885Z,18.60
2018-09-10T00:28:11.798Z,18.60
2018-09-10T00:30:39.974Z,18.60
2018-09-10T00:33:07.975Z,18.60
2018-09-10T00:35:35.917Z,18.50
2018-09-10T00:38:03.865Z,18.50
2018-09-10T00:40:31.803Z,18.50
2018-09-10T00:42:59.752Z,18.50
2018-09-10T00:45:27.729Z,18.50
2018-09-10T00:47:56.504Z,18.50
2018-09-10T00:50:24.765Z,18.40
2018-09-10T00:52:52.751Z,18.40
2018-09-10T00:55:20.799Z,18.40
2018-09-10T00:57:48.815Z,18.40
2018-09-10T01:00:17.024Z,18.40
2018-09-10T01:02:44.950Z,18.40
2018-09-10T01:05:12.891Z,18.40
2018-09-10T01:07:40.838Z,18.40
2018-09-10T01:10:08.775Z,18.30
2018-09-10T01:12:36.741Z,18.30
2018-09-10T01:15:04.700Z,18.20
2018-09-10T01:17:32.635Z,18.30
2018-09-10T01:20:00.596Z,18.20
2018-09-10T01:22:28.528Z,18.20
2018-09-10T01:24:56.506Z,18.20
2018-09-10T01:27:24.450Z,18.20
2018-09-10T01:29:52.378Z,18.20
2018-09-10T01:32:20.332Z,18.20
2018-09-10T01:34:53.627Z,18.20
2018-09-10T01:37:21.589Z,18.10
2018-09-10T01:39:49.531Z,18.10
2018-09-10T01:42:17.742Z,18.10
2018-09-10T01:44:45.675Z,18.10
2018-09-10T01:47:13.640Z,18.10
2018-09-10T01:49:41.580Z,18.10
2018-09-10T01:52:09.513Z,18.00
2018-09-10T01:54:37.432Z,18.00
2018-09-10T01:57:05.363Z,18.00
2018-09-10T01:59:33.318Z,18.00
2018-09-10T02:02:01.232Z,18.00
2018-09-10T02:04:29.206Z,18.00
2018-09-10T02:06:57.157Z,18.10
2018-09-10T02:09:25.114Z,18.00
2018-09-10T02:11:53.082Z,18.10
2018-09-10T02:14:21.044Z,18.00
2018-09-10T02:16:49.098Z,18.00
2018-09-10T02:19:17.031Z,18.10
2018-09-10T02:21:44.984Z,18.10
2018-09-10T02:24:12.992Z,18.00
2018-09-10T02:26:40.926Z,18.10
2018-09-10T02:29:09.166Z,18.10
2018-09-10T02:31:37.046Z,18.10
2018-09-10T02:34:04.970Z,18.10
2018-09-10T02:36:32.922Z,18.10
2018-09-10T02:39:00.840Z,18.10
2018-09-10T02:41:28.792Z,18.20
2018-09-10T02:43:56.725Z,18.20
2018-09-10T02:46:24.676Z,18.10
2018-09-10T02:48:52.604Z,18.10
2018-09-10T02:51:20.638Z,18.10
2018-09-10T02:53:48.590Z,18.10
2018-09-10T02:56:16.527Z,18.10
2018-09-10T02:58:44.461Z,18.10
2018-09-10T03:01:12.416Z,18.20
2018-09-10T03:03:40.627Z,18.10
2018-09-10T03:06:08.552Z,18.10
2018-09-10T03:08:36.491Z,18.10
2018-09-10T03:11:04.445Z,18.10
2018-09-10T03:13:32.379Z,18.10
2018-09-10T03:16:00.321Z,18.10
2018-09-10T03:18:28.244Z,18.10
2018-09-10T03:20:56.185Z,18.10
2018-09-10T03:23:24.176Z,18.10
2018-09-10T03:25:52.122Z,18.10
2018-09-10T03:28:20.077Z,18.00
2018-09-10T03:30:48.290Z,18.00
2018-09-10T03:33:16.211Z,18.00
2018-09-10T03:35:44.147Z,17.90
2018-09-10T03:38:12.104Z,17.90
2018-09-10T03:40:43.613Z,18.00
2018-09-10T03:43:11.563Z,18.00
2018-09-10T03:45:39.776Z,18.00
2018-09-10T03:48:07.999Z,18.00
2018-09-10T03:50:35.933Z,18.00
2018-09-10T03:53:03.898Z,18.00
2018-09-10T03:55:31.808Z,18.00
2018-09-10T03:57:59.856Z,17.90
2018-09-10T04:00:27.798Z,17.80
2018-09-10T04:02:55.826Z,17.90
2018-09-10T04:05:23.826Z,17.90
2018-09-10T04:07:51.774Z,17.80
2018-09-10T04:10:19.738Z,17.80
2018-09-10T04:12:47.718Z,17.70
2018-09-10T04:15:15.658Z,17.70
2018-09-10T04:17:43.585Z,17.80
2018-09-10T04:20:12.076Z,17.80
2018-09-10T04:22:41.192Z,17.80
2018-09-10T04:25:09.132Z,17.80
2018-09-10T04:27:37.706Z,17.80
2018-09-10T04:30:09.004Z,17.80
2018-09-10T04:32:36.965Z,17.80
2018-09-10T04:35:05.246Z,17.80
2018-09-10T04:37:33.185Z,17.90
2018-09-10T04:40:01.123Z,17.90
2018-09-10T04:42:29.375Z,17.90
2018-09-10T04:44:57.307Z,17.90
2018-09-10T04:47:25.376Z,17.90
2018-09-10T04:49:53.439Z,17.80
2018-09-10T04:52:21.291Z,17.80
2018-09-10T04:54:49.236Z,17.80
2018-09-10T04:57:17.502Z,17.80
2018-09-10T04:59:45.434Z,17.90
2018-09-10T05:02:13.375Z,17.80
2018-09-10T05:04:41.574Z,17.90
2018-09-10T05:07:09.557Z,17.90
2018-09-10T05:09:37.478Z,17.90
2018-09-10T05:12:07.355Z,17.90
2018-09-10T05:14:35.285Z,18.00
2018-09-10T05:17:03.547Z,18.00
2018-09-10T05:19:32.435Z,18.00
2018-09-10T05:22:00.392Z,17.90
2018-09-10T05:24:28.424Z,17.90
2018-09-10T05:26:56.366Z,18.00
2018-09-10T05:29:24.646Z,18.00
2018-09-10T05:31:52.575Z,18.00
2018-09-10T05:34:20.510Z,18.00
2018-09-10T05:36:48.461Z,18.00
2018-09-10T05:39:16.476Z,18.10
2018-09-10T05:41:44.492Z,18.10
2018-09-10T05:44:12.452Z,18.10
2018-09-10T05:46:40.524Z,18.10
2018-09-10T05:49:08.593Z,18.10
2018-09-10T05:51:36.823Z,18.10
2018-09-10T05:54:04.781Z,18.10
2018-09-10T05:56:32.752Z,18.10
2018-09-10T05:59:01.004Z,18.10
2018-09-10T06:01:28.969Z,18.10
2018-09-10T06:03:56.941Z,18.10
2018-09-10T06:06:24.944Z,18.10
2018-09-10T06:08:52.932Z,18.10
2018-09-10T06:11:20.882Z,18.20
2018-09-10T06:13:48.950Z,18.20
2018-09-10T06:16:16.918Z,18.20
2018-09-10T06:18:44.836Z,18.30
2018-09-10T06:21:12.822Z,18.40
2018-09-10T06:23:40.824Z,18.40
2018-09-10T06:26:08.967Z,18.50
2018-09-10T06:28:40.622Z,18.50
2018-09-10T06:31:08.609Z,18.60
2018-09-10T06:33:36.720Z,18.60
2018-09-10T06:36:04.649Z,18.70
2018-09-10T06:38:32.606Z,18.70
2018-09-10T06:41:00.552Z,18.80
2018-09-10T06:43:28.497Z,18.80
2018-09-10T06:45:56.456Z,18.70
2018-09-10T06:48:24.405Z,18.80
2018-09-10T06:50:52.351Z,18.80
2018-09-10T06:53:20.333Z,18.80
2018-09-10T06:55:48.268Z,18.90
2018-09-10T06:58:16.225Z,18.90
2018-09-10T07:00:44.176Z,19.00
2018-09-10T07:03:12.114Z,19.00
2018-09-10T07:05:40.072Z,19.10
2018-09-10T07:08:08.022Z,19.20
2018-09-10T07:10:36.060Z,19.20
2018-09-10T07:13:04.030Z,19.30
2018-09-10T07:15:32.217Z,19.40
2018-09-10T07:18:00.180Z,19.50
2018-09-10T07:20:28.125Z,19.50
2018-09-10T07:22:56.067Z,19.60
2018-09-10T07:25:24.011Z,19.70
2018-09-10T07:27:51.970Z,19.70
2018-09-10T07:30:19.965Z,19.80
2018-09-10T07:32:47.911Z,19.80
2018-09-10T07:35:15.860Z,19.90
2018-09-10T07:37:43.803Z,20.00
2018-09-10T07:40:11.756Z,20.00
2018-09-10T07:42:39.691Z,20.00
2018-09-10T07:45:11.300Z,20.10
2018-09-10T07:47:39.258Z,20.20
2018-09-10T07:50:07.207Z,20.20
2018-09-10T07:52:35.145Z,20.20
2018-09-10T07:55:03.108Z,20.30
2018-09-10T07:57:31.075Z,20.40
2018-09-10T08:02:32.292Z,20.50
2018-09-10T08:05:00.580Z,20.60
2018-09-10T08:07:28.515Z,20.70
2018-09-10T08:09:56.458Z,20.70
2018-09-10T08:12:24.451Z,20.80
2018-09-10T08:14:52.385Z,20.90
2018-09-10T08:17:20.326Z,20.90
2018-09-10T08:19:48.305Z,21.00
2018-09-10T08:22:16.268Z,21.10
2018-09-10T08:24:44.199Z,21.10
2018-09-10T08:27:12.452Z,21.10
2018-09-10T08:29:40.449Z,21.10
2018-09-10T08:32:08.418Z,21.20
2018-09-10T08:34:36.399Z,21.20
2018-09-10T08:37:04.830Z,21.30
2018-09-10T08:39:32.812Z,21.30
2018-09-10T08:42:00.757Z,21.40
2018-09-10T08:44:28.954Z,21.50
2018-09-10T08:46:56.954Z,21.60
2018-09-10T08:49:24.896Z,21.70
2018-09-10T08:51:52.900Z,21.80
2018-09-10T08:54:21.039Z,21.90
2018-09-10T08:56:48.893Z,21.90
2018-09-10T08:59:16.895Z,22.00
2018-09-10T09:01:45.500Z,22.10
2018-09-10T09:04:13.384Z,22.10
2018-09-10T09:06:42.414Z,22.20
2018-09-10T09:09:10.502Z,22.20
2018-09-10T09:11:38.429Z,22.30
2018-09-10T09:14:06.415Z,22.30
2018-09-10T09:16:34.346Z,22.40
2018-09-10T09:19:02.324Z,22.40
2018-09-10T09:21:30.279Z,22.50
2018-09-10T09:23:58.208Z,22.50
2018-09-10T09:26:26.142Z,22.50
2018-09-10T09:28:54.189Z,22.60
2018-09-10T09:31:22.149Z,22.60
2018-09-10T09:33:50.241Z,22.70
2018-09-10T09:36:23.613Z,22.70
2018-09-10T09:38:56.915Z,22.70
2018-09-10T09:41:30.293Z,22.80
2018-09-10T09:44:04.045Z,22.80
2018-09-10T09:46:31.990Z,22.90
2018-09-10T09:48:59.978Z,22.90
2018-09-10T09:51:27.928Z,22.90
2018-09-10T09:53:55.896Z,22.90
2018-09-10T09:56:23.817Z,22.90
2018-09-10T09:58:52.443Z,23.00
2018-09-10T10:01:27.682Z,23.00
2018-09-10T10:03:56.677Z,23.00
2018-09-10T10:06:25.260Z,23.10
2018-09-10T10:08:53.290Z,23.10
2018-09-10T10:11:21.309Z,23.10
2018-09-10T10:13:49.217Z,23.20
2018-09-10T10:16:17.232Z,23.20
2018-09-10T10:18:45.443Z,23.20
2018-09-10T10:21:13.511Z,23.20
2018-09-10T10:23:41.532Z,23.20
2018-09-10T10:26:09.482Z,23.30
2018-09-10T10:28:37.431Z,23.30
2018-09-10T10:31:05.633Z,23.30
2018-09-10T10:33:33.580Z,23.40
2018-09-10T10:36:01.560Z,23.50
2018-09-10T10:38:29.504Z,23.50
2018-09-10T10:40:57.460Z,23.60
2018-09-10T10:43:25.384Z,23.60
2018-09-10T10:45:53.330Z,23.70
2018-09-10T10:48:21.267Z,23.70
2018-09-10T10:50:49.336Z,23.80
2018-09-10T10:53:17.549Z,23.80
2018-09-10T10:55:45.525Z,23.80
2018-09-10T10:58:13.520Z,23.90
2018-09-10T11:00:41.521Z,24.00
2018-09-10T11:03:09.551Z,24.00
2018-09-10T11:05:37.677Z,24.00
2018-09-10T11:08:05.728Z,24.00
2018-09-10T11:10:33.722Z,24.10
2018-09-10T11:13:01.778Z,24.10
2018-09-10T11:15:29.735Z,24.20
2018-09-10T11:17:57.719Z,24.20
2018-09-10T11:20:25.682Z,24.20
2018-09-10T11:22:53.681Z,24.20
2018-09-10T11:25:21.617Z,24.30
2018-09-10T11:27:49.704Z,24.30
2018-09-10T11:30:17.584Z,24.30
2018-09-10T11:32:45.592Z,24.30
2018-09-10T11:35:13.548Z,24.30
2018-09-10T11:37:41.650Z,24.30
2018-09-10T11:40:09.591Z,24.40
2018-09-10T11:42:37.542Z,24.50
2018-09-10T11:45:05.648Z,24.60
2018-09-10T11:47:33.602Z,24.60
2018-09-10T11:50:01.620Z,24.70
2018-09-10T11:52:29.626Z,24.70
2018-09-10T11:54:57.576Z,24.70
2018-09-10T11:57:25.534Z,24.70
2018-09-10T11:59:53.545Z,24.70
2018-09-10T12:02:21.481Z,24.80
2018-09-10T12:04:49.446Z,24.80
2018-09-10T12:07:17.428Z,24.80
2018-09-10T12:09:45.365Z,24.90
2018-09-10T12:12:13.356Z,24.90
2018-09-10T12:14:41.306Z,24.90
2018-09-10T12:17:09.281Z,24.90
2018-09-10T12:19:37.283Z,24.90
2018-09-10T12:22:05.236Z,24.90
2018-09-10T12:24:33.198Z,24.90
2018-09-10T12:27:01.407Z,24.90
2018-09-10T12:29:29.346Z,24.90
2018-09-10T12:31:57.319Z,25.00
2018-09-10T12:34:25.341Z,25.00
2018-09-10T12:36:53.280Z,25.00
2018-09-10T12:39:21.378Z,24.90
2018-09-10T12:41:49.311Z,24.90
2018-09-10T12:44:17.947Z,24.80
2018-09-10T12:46:45.949Z,24.80
2018-09-10T12:49:13.864Z,24.80
2018-09-10T12:51:41.861Z,24.80
2018-09-10T12:54:09.800Z,24.80
2018-09-10T12:56:37.791Z,24.70
2018-09-10T12:59:05.755Z,24.70
2018-09-10T13:01:33.756Z,24.70
2018-09-10T13:04:01.766Z,24.70
2018-09-10T13:06:29.679Z,24.70
2018-09-10T13:08:57.638Z,24.80
2018-09-10T13:11:25.643Z,24.80
2018-09-10T13:13:53.644Z,24.80
2018-09-10T13:16:21.683Z,24.80
2018-09-10T13:18:49.570Z,24.80
2018-09-10T13:21:18.440Z,24.80
2018-09-10T13:23:46.410Z,24.80
2018-09-10T13:26:14.373Z,24.90
2018-09-10T13:28:42.357Z,24.90
2018-09-10T13:31:10.409Z,24.90
2018-09-10T13:33:38.384Z,24.90
2018-09-10T13:36:06.704Z,24.90
2018-09-10T13:38:35.858Z,24.90
2018-09-10T13:41:03.794Z,24.90
2018-09-10T13:43:31.797Z,24.80
2018-09-10T13:45:59.739Z,24.80
2018-09-10T13:48:27.698Z,24.80
2018-09-10T13:50:59.354Z,24.90
2018-09-10T13:53:27.312Z,24.80
2018-09-10T13:55:55.269Z,24.80
2018-09-10T13:58:23.251Z,24.80
2018-09-10T14:00:51.192Z,24.80
2018-09-10T14:03:19.156Z,24.80
2018-09-10T14:05:47.112Z,24.80
2018-09-10T14:08:15.107Z,24.80
2018-09-10T14:10:43.133Z,24.80
2018-09-10T14:13:11.029Z,24.90
2018-09-10T14:15:38.998Z,24.90
2018-09-10T14:18:07.261Z,25.00
2018-09-10T14:20:35.191Z,25.00
2018-09-10T14:23:03.136Z,25.00
2018-09-10T14:25:31.100Z,25.00
2018-09-10T14:27:59.102Z,25.00
2018-09-10T14:30:27.104Z,25.10
2018-09-10T14:32:55.127Z,25.10
2018-09-10T14:35:23.087Z,25.00
2018-09-10T14:37:51.083Z,25.00
2018-09-10T14:40:19.024Z,24.90
2018-09-10T14:42:47.004Z,24.90
2018-09-10T14:45:14.969Z,24.80
2018-09-10T14:47:42.972Z,24.90
2018-09-10T14:50:10.952Z,24.90
2018-09-10T14:52:39.047Z,24.80
2018-09-10T14:55:07.079Z,24.80
2018-09-10T14:57:35.092Z,24.80
2018-09-10T15:00:03.062Z,24.80
2018-09-10T15:02:31.093Z,24.80
2018-09-10T15:04:59.136Z,24.80
2018-09-10T15:07:27.097Z,24.80
2018-09-10T15:09:55.067Z,24.80
2018-09-10T15:12:23.083Z,24.80
2018-09-10T15:14:51.093Z,24.70
2018-09-10T15:17:19.316Z,24.70
2018-09-10T15:19:47.326Z,24.70
2018-09-10T15:22:22.445Z,24.70
2018-09-10T15:24:50.471Z,24.60
2018-09-10T15:27:18.438Z,24.60
2018-09-10T15:29:46.403Z,24.60
2018-09-10T15:32:14.373Z,24.60
2018-09-10T15:34:42.358Z,24.60
2018-09-10T15:37:10.567Z,24.50
2018-09-10T15:39:38.498Z,24.50
2018-09-10T15:42:06.484Z,24.50
2018-09-10T15:44:34.819Z,24.50
2018-09-10T15:47:02.741Z,24.50
2018-09-10T15:49:30.738Z,24.50
2018-09-10T15:51:59.007Z,24.50
2018-09-10T15:54:26.978Z,24.50
2018-09-10T15:56:54.948Z,24.50
2018-09-10T15:59:22.919Z,24.50
2018-09-10T16:01:50.860Z,24.50
2018-09-10T16:04:18.843Z,24.50
2018-09-10T16:06:46.769Z,24.50
2018-09-10T16:09:15.003Z,24.50
2018-09-10T16:11:43.008Z,24.40
2018-09-10T16:14:10.963Z,24.40
2018-09-10T16:16:38.934Z,24.40
2018-09-10T16:19:06.907Z,24.40
2018-09-10T16:21:34.845Z,24.30
2018-09-10T16:24:02.809Z,24.40
2018-09-10T16:26:30.775Z,24.30
2018-09-10T16:28:58.707Z,24.30
2018-09-10T16:31:26.658Z,24.20
2018-09-10T16:33:54.689Z,24.20
2018-09-10T16:36:22.594Z,24.10
2018-09-10T16:38:50.805Z,24.10
2018-09-10T16:41:18.749Z,24.00
2018-09-10T16:43:46.743Z,24.00
2018-09-10T16:46:14.715Z,23.90
2018-09-10T16:48:42.664Z,23.90
2018-09-10T16:51:10.605Z,23.90
2018-09-10T16:53:38.532Z,23.90
2018-09-10T16:56:06.534Z,23.80
2018-09-10T16:58:34.509Z,23.80
2018-09-10T17:01:02.552Z,23.80
2018-09-10T17:03:30.596Z,23.80
2018-09-10T17:05:58.546Z,23.70
2018-09-10T17:08:26.613Z,23.80
2018-09-10T17:10:54.559Z,23.70
2018-09-10T17:13:22.507Z,23.70
2018-09-10T17:15:50.549Z,23.70
2018-09-10T17:18:18.507Z,23.60
2018-09-10T17:20:46.519Z,23.50
2018-09-10T17:23:14.459Z,23.50
2018-09-10T17:25:42.419Z,23.50
2018-09-10T17:28:10.403Z,23.40
2018-09-10T17:30:38.362Z,23.40
2018-09-10T17:33:06.290Z,23.40
2018-09-10T17:35:34.239Z,23.40
2018-09-10T17:38:02.200Z,23.40
2018-09-10T17:40:30.397Z,23.40
2018-09-10T17:42:58.322Z,23.40
2018-09-10T17:45:26.295Z,23.40
2018-09-10T17:47:54.568Z,23.30
2018-09-10T17:50:22.504Z,23.40
2018-09-10T17:52:50.554Z,23.30
2018-09-10T17:55:18.513Z,23.40
2018-09-10T17:57:46.463Z,23.40
2018-09-10T18:00:14.401Z,23.30
2018-09-10T18:02:42.345Z,23.30
2018-09-10T18:05:10.331Z,23.20
2018-09-10T18:07:38.303Z,23.20
2018-09-10T18:10:06.299Z,23.10
2018-09-10T18:12:34.265Z,23.10
2018-09-10T18:15:02.260Z,23.00
2018-09-10T18:17:30.309Z,23.10
2018-09-10T18:19:58.246Z,23.20
2018-09-10T18:22:26.243Z,23.10
2018-09-10T18:24:54.255Z,23.10
2018-09-10T18:27:22.162Z,23.10
2018-09-10T18:29:50.147Z,23.10
2018-09-10T18:32:18.053Z,23.10
2018-09-10T18:34:46.000Z,23.10
2018-09-10T18:37:14.278Z,23.10
2018-09-10T18:39:42.210Z,23.10
2018-09-10T18:42:10.208Z,23.00
2018-09-10T18:44:38.170Z,23.00
2018-09-10T18:47:06.168Z,23.00
2018-09-10T18:49:34.103Z,23.00
2018-09-10T18:52:02.057Z,23.10
2018-09-10T18:54:30.018Z,23.00
2018-09-10T18:56:58.044Z,23.00
2018-09-10T18:59:29.433Z,23.00
2018-09-10T19:01:57.373Z,23.00
2018-09-10T19:04:25.326Z,23.00
2018-09-10T19:06:53.296Z,23.00
2018-09-10T19:09:21.264Z,23.00
2018-09-10T19:11:49.484Z,22.90
2018-09-10T19:14:17.461Z,22.90
2018-09-10T19:16:45.413Z,22.80
2018-09-10T19:19:13.728Z,22.80
2018-09-10T19:21:41.661Z,22.80
2018-09-10T19:24:09.689Z,22.80
2018-09-10T19:26:37.627Z,22.80
2018-09-10T19:29:05.599Z,22.80
2018-09-10T19:31:33.538Z,22.80
2018-09-10T19:34:01.597Z,22.80
2018-09-10T19:36:29.591Z,22.80
2018-09-10T19:38:57.953Z,22.70
2018-09-10T19:41:29.201Z,22.70
2018-09-10T19:43:57.257Z,22.70
2018-09-10T19:46:25.231Z,22.70
2018-09-10T19:48:53.280Z,22.60
2018-09-10T19:51:21.216Z,22.60
2018-09-10T19:53:49.429Z,22.60
2018-09-10T19:56:17.362Z,22.60
2018-09-10T19:58:45.337Z,22.60
2018-09-10T20:01:13.281Z,22.60
2018-09-10T20:03:41.229Z,22.50
2018-09-10T20:06:09.189Z,22.50
2018-09-10T20:08:37.147Z,22.50
2018-09-10T20:11:05.126Z,22.50
2018-09-10T20:13:33.176Z,22.50
2018-09-10T20:16:01.220Z,22.50
2018-09-10T20:18:29.220Z,22.50
2018-09-10T20:20:57.190Z,22.60
2018-09-10T20:23:25.182Z,22.60
2018-09-10T20:25:53.250Z,22.50
2018-09-10T20:28:21.343Z,22.40
2018-09-10T20:30:49.413Z,22.50
2018-09-10T20:33:17.460Z,22.50
2018-09-10T20:35:45.432Z,22.50
2018-09-10T20:38:13.463Z,22.50
2018-09-10T20:40:41.520Z,22.50
2018-09-10T20:43:09.534Z,22.50
2018-09-10T20:45:37.541Z,22.50
2018-09-10T20:48:05.536Z,22.40
2018-09-10T20:50:33.551Z,22.40
2018-09-10T20:53:01.546Z,22.30
2018-09-10T20:55:29.643Z,22.30
2018-09-10T20:57:57.608Z,22.30
2018-09-10T21:00:25.559Z,22.30
2018-09-10T21:02:53.528Z,22.30
2018-09-10T21:05:21.536Z,22.30
2018-09-10T21:07:49.850Z,22.30
2018-09-10T21:10:17.805Z,22.30
2018-09-10T21:12:45.741Z,22.30
2018-09-10T21:15:13.826Z,22.20
2018-09-10T21:17:41.743Z,22.20
2018-09-10T21:20:09.664Z,22.20
2018-09-10T21:22:37.819Z,22.20
2018-09-10T21:25:05.861Z,22.20
2018-09-10T21:27:33.800Z,22.20
2018-09-10T21:30:01.762Z,22.20
2018-09-10T21:32:29.693Z,22.20
2018-09-10T21:34:57.709Z,22.20
2018-09-10T21:37:25.684Z,22.20
2018-09-10T21:39:53.837Z,22.10
2018-09-10T21:42:21.838Z,22.00
2018-09-10T21:44:49.775Z,22.00
2018-09-10T21:47:17.759Z,22.00
2018-09-10T21:49:45.760Z,22.10
2018-09-10T21:52:13.721Z,22.10
2018-09-10T21:54:41.686Z,22.10
2018-09-10T21:57:09.641Z,22.00
2018-09-10T21:59:37.673Z,22.00
2018-09-10T22:02:05.801Z,22.00
2018-09-10T22:04:33.751Z,21.90
2018-09-10T22:07:01.694Z,21.90
2018-09-10T22:09:29.652Z,21.90
2018-09-10T22:12:01.726Z,21.80
2018-09-10T22:14:29.832Z,21.80
2018-09-10T22:16:57.792Z,21.80
2018-09-10T22:19:25.717Z,21.70
2018-09-10T22:21:53.680Z,21.70
2018-09-10T22:24:21.651Z,21.70
2018-09-10T22:26:49.692Z,21.70
2018-09-10T22:29:20.935Z,21.80
2018-09-10T22:31:48.883Z,21.80
2018-09-10T22:34:17.108Z,21.70
2018-09-10T22:36:45.070Z,21.70
2018-09-10T22:39:14.189Z,21.60
2018-09-10T22:41:42.572Z,21.60
2018-09-10T22:44:10.617Z,21.70
2018-09-10T22:46:38.546Z,21.60
2018-09-10T22:49:07.451Z,21.60
2018-09-10T22:51:35.592Z,21.50
2018-09-10T22:54:03.565Z,21.50
2018-09-10T22:56:31.517Z,21.50
2018-09-10T22:58:59.466Z,21.50
2018-09-10T23:01:27.431Z,21.50
2018-09-10T23:03:55.405Z,21.50
2018-09-10T23:06:23.378Z,21.50
2018-09-10T23:08:51.453Z,21.40
2018-09-10T23:11:19.390Z,21.40
2018-09-10T23:13:47.372Z,21.40
2018-09-10T23:16:15.320Z,21.40
2018-09-10T23:18:43.338Z,21.50
2018-09-10T23:21:11.297Z,21.50
2018-09-10T23:23:39.537Z,21.50
2018-09-10T23:26:07.568Z,21.60
2018-09-10T23:28:35.513Z,21.50
2018-09-10T23:31:03.610Z,21.40
2018-09-10T23:33:31.561Z,21.40
2018-09-10T23:35:59.608Z,21.30
2018-09-10T23:38:27.561Z,21.30
2018-09-10T23:40:55.521Z,21.30
2018-09-10T23:43:23.461Z,21.30
2018-09-10T23:45:51.482Z,21.30
2018-09-10T23:48:19.424Z,21.30
2018-09-10T23:50:47.362Z,21.30
2018-09-10T23:53:15.330Z,21.30
2018-09-10T23:55:43.254Z,21.30
2018-09-10T23:58:11.208Z,21.20
